Aurora, WV

2:30 PM EDT on March 30, 2015 (GMT -0400)
1 1/2 Mi. South of Terra Alta, Snowy Creek WV | | Change Station
CLOSE
Current Station
Personal Weather Station
Location: Terra Alta, WV
Elevation: 2842 ft
Nearby Weather Stations

Elev 2842 ft 39.40 °N, 79.58 °W | Updated 14 minutes ago

Mostly Cloudy
Mostly Cloudy
50.0 °F
Feels Like 46 °F
N
11.4
Wind Variable Wind from South

Today
High -- | Low -- °F
--% Chance of Precip.
Yesterday
High -- | Low -- °F
Precip. -- in
7:06 AM 7:39 PM
Waxing Gibbous, 81% visible
Pressure 29.88 in
Visibility 10.0 miles
Clouds Mostly Cloudy 4500 ft
Mostly Cloudy 5000 ft
Windchill 46 °F
Dew Point 22 °F
Humidity 33%
Rainfall 0.37 in
Snow Depth Not available.
UV 5 out of 12
Pollen 7.40 out of 12
Air Quality Not available.
Flu Activity Not available.
METAR K2G4 301810Z AUTO 29011G22KT 232V342 10SM BKN045 BKN050 06/M01 A2988 RMK AO1

More Conditions Fewer Conditions

Pressure 29.88 in
Visibility 10.0 miles
Clouds Mostly Cloudy 4500 ft
Mostly Cloudy 5000 ft
Windchill 46 °F
Dew Point 22 °F
Humidity 33%
Rainfall 0.37 in
Snow Depth Not available.
UV 5 out of 12
Pollen 7.40 out of 12
Air Quality Not available.
Flu Activity Not available.
METAR K2G4 301810Z AUTO 29011G22KT 232V342 10SM BKN045 BKN050 06/M01 A2988 RMK AO1

More Conditions Fewer Conditions

10-Day Weather Forecast

Almanac

Astronomy

Mar. 30, 2015 Rise Set
Actual Time
Civil Twilight
Nautical Twilight
Astronomical Twilight
Moon
Length of Visible Light
Length of Day
Tomorrow will be .
, % of the Moon is Illuminated

Today's Extremes

State Highs State Lows

Community

WunderPhotos

Upload Photos

1,809,562 photos uploaded!

WunderBlogs® & News

Nearby

Air Quality

  Air Quality AQ Index Pollutant
Not available.

Snow Depth

Station Depth Elevation

Earthquake Activity

City Distance Mag. Time & Date
Minimum magnitude displayed is 2.5.

Coastal Water Temperatures

Place Temperature

Stations

Nearby Weather Stations

Station Location Temp. Windchill Dew Point Humidity Wind Precip. Elev Updated Type